createdAt,value
2017-12-30T00:01:49.663Z,3.10
2017-12-30T00:04:17.162Z,3.20
2017-12-30T00:06:44.821Z,3.10
2017-12-30T00:09:12.351Z,3.20
2017-12-30T00:11:40.720Z,3.10
2017-12-30T00:14:08.219Z,3.10
2017-12-30T00:16:35.943Z,3.20
2017-12-30T00:19:03.442Z,3.20
2017-12-30T00:21:31.194Z,3.30
2017-12-30T00:23:58.687Z,3.30
2017-12-30T00:26:26.182Z,3.40
2017-12-30T00:28:53.688Z,3.40
2017-12-30T00:31:21.819Z,3.30
2017-12-30T00:33:49.987Z,3.30
2017-12-30T00:36:18.062Z,3.30
2017-12-30T00:38:45.550Z,3.30
2017-12-30T00:41:13.294Z,3.40
2017-12-30T00:43:41.377Z,3.40
2017-12-30T00:46:08.887Z,3.40
2017-12-30T00:48:37.432Z,3.50
2017-12-30T00:51:04.928Z,3.50
2017-12-30T00:53:32.435Z,3.50
2017-12-30T00:55:59.914Z,3.60
2017-12-30T00:58:27.422Z,3.40
2017-12-30T01:00:54.912Z,3.30
2017-12-30T01:03:22.631Z,3.30
2017-12-30T01:05:50.917Z,3.40
2017-12-30T01:08:18.623Z,3.40
2017-12-30T01:10:46.121Z,3.50
2017-12-30T01:13:13.754Z,3.50
2017-12-30T01:15:42.015Z,3.70
2017-12-30T01:18:09.903Z,3.70
2017-12-30T01:20:38.160Z,3.60
2017-12-30T01:23:05.867Z,3.50
2017-12-30T01:25:33.488Z,3.60
2017-12-30T01:28:01.423Z,3.60
2017-12-30T01:30:29.192Z,3.50
2017-12-30T01:32:56.682Z,3.50
2017-12-30T01:35:24.189Z,3.50
2017-12-30T01:37:51.871Z,3.60
2017-12-30T01:40:20.791Z,3.70
2017-12-30T01:42:48.284Z,3.60
2017-12-30T01:45:15.886Z,3.70
2017-12-30T01:47:43.535Z,3.70
2017-12-30T01:50:11.038Z,3.70
2017-12-30T01:52:38.716Z,3.70
2017-12-30T01:55:06.278Z,3.70
2017-12-30T01:57:34.179Z,3.70
2017-12-30T02:00:02.075Z,3.70
2017-12-30T02:02:30.114Z,3.70
2017-12-30T02:04:58.171Z,3.80
2017-12-30T02:07:26.051Z,3.80
2017-12-30T02:09:53.941Z,3.90
2017-12-30T02:12:22.092Z,3.90
2017-12-30T02:14:49.978Z,3.90
2017-12-30T02:17:17.539Z,4.00
2017-12-30T02:19:45.039Z,3.90
2017-12-30T02:22:13.433Z,3.80
2017-12-30T02:24:41.223Z,3.80
2017-12-30T02:27:08.719Z,3.90
2017-12-30T02:29:36.435Z,3.90
2017-12-30T02:32:03.943Z,3.90
2017-12-30T02:34:31.463Z,3.90
2017-12-30T02:36:59.423Z,3.90
2017-12-30T02:39:27.490Z,3.90
2017-12-30T02:41:54.995Z,4.00
2017-12-30T02:44:22.490Z,3.90
2017-12-30T02:46:51.184Z,4.00
2017-12-30T02:49:19.164Z,4.00
2017-12-30T02:51:46.680Z,4.10
2017-12-30T02:54:14.381Z,4.10
2017-12-30T02:56:42.650Z,4.10
2017-12-30T02:59:10.219Z,4.10
2017-12-30T03:01:37.936Z,4.20
2017-12-30T03:04:05.435Z,4.10
2017-12-30T03:06:32.938Z,4.20
2017-12-30T03:09:00.634Z,4.20
2017-12-30T03:11:28.127Z,4.30
2017-12-30T03:13:55.891Z,4.30
2017-12-30T03:16:23.947Z,4.30
2017-12-30T03:18:51.467Z,4.40
2017-12-30T03:21:18.967Z,4.40
2017-12-30T03:23:47.550Z,4.50
2017-12-30T03:26:15.442Z,4.40
2017-12-30T03:28:42.948Z,4.50
2017-12-30T03:31:10.513Z,4.50
2017-12-30T03:33:38.419Z,4.60
2017-12-30T03:36:06.243Z,4.60
2017-12-30T03:38:34.142Z,4.80
2017-12-30T03:41:01.644Z,4.70
2017-12-30T03:43:29.967Z,4.70
2017-12-30T03:45:57.723Z,4.70
2017-12-30T03:48:26.414Z,4.70
2017-12-30T03:50:54.482Z,4.70
2017-12-30T03:53:21.974Z,4.70
2017-12-30T03:55:50.010Z,4.80
2017-12-30T03:58:18.198Z,4.80
2017-12-30T04:00:45.842Z,4.80
2017-12-30T04:03:13.335Z,4.90
2017-12-30T04:05:41.987Z,4.90
2017-12-30T04:08:09.490Z,5.00
2017-12-30T04:10:37.511Z,5.10
2017-12-30T04:13:05.003Z,5.00
2017-12-30T04:15:32.516Z,5.00
2017-12-30T04:18:00.153Z,5.00
2017-12-30T04:20:28.171Z,5.00
2017-12-30T04:22:56.435Z,5.00
2017-12-30T04:25:24.096Z,5.10
2017-12-30T04:27:51.603Z,5.10
2017-12-30T04:30:19.877Z,5.10
2017-12-30T04:32:47.999Z,5.10
2017-12-30T04:35:16.032Z,5.10
2017-12-30T04:37:43.540Z,5.10
2017-12-30T04:40:11.035Z,5.20
2017-12-30T04:42:39.060Z,5.20
2017-12-30T04:45:06.942Z,5.20
2017-12-30T04:47:34.451Z,5.20
2017-12-30T04:50:02.000Z,5.20
2017-12-30T04:52:29.511Z,5.20
2017-12-30T04:54:57.003Z,5.20
2017-12-30T04:57:24.506Z,5.20
2017-12-30T04:59:52.394Z,5.20
2017-12-30T05:02:20.290Z,5.20
2017-12-30T05:04:48.610Z,5.20
2017-12-30T05:07:17.558Z,5.20
2017-12-30T05:09:45.055Z,5.30
2017-12-30T05:12:12.568Z,5.20
2017-12-30T05:14:40.714Z,5.30
2017-12-30T05:17:08.638Z,5.30
2017-12-30T05:19:36.427Z,5.30
2017-12-30T05:22:04.379Z,5.30
2017-12-30T05:24:31.875Z,5.30
2017-12-30T05:27:00.924Z,5.30
2017-12-30T05:29:28.419Z,5.30
2017-12-30T05:31:56.172Z,5.30
2017-12-30T05:34:24.114Z,5.20
2017-12-30T05:36:51.647Z,5.30
2017-12-30T05:39:19.774Z,5.30
2017-12-30T05:41:48.166Z,5.30
2017-12-30T05:44:16.081Z,5.20
2017-12-30T05:46:43.583Z,5.30
2017-12-30T05:49:11.088Z,5.30
2017-12-30T05:51:38.591Z,5.30
2017-12-30T05:54:06.350Z,5.30
2017-12-30T05:56:34.110Z,5.30
2017-12-30T05:59:01.879Z,5.30
2017-12-30T06:01:29.483Z,5.30
2017-12-30T06:03:57.394Z,5.30
2017-12-30T06:06:25.167Z,5.30
2017-12-30T06:08:53.114Z,5.30
2017-12-30T06:11:20.694Z,5.30
2017-12-30T06:13:48.459Z,5.30
2017-12-30T06:16:16.971Z,5.30
2017-12-30T06:18:44.769Z,5.30
2017-12-30T06:21:13.968Z,5.30
2017-12-30T06:23:41.458Z,5.20
2017-12-30T06:26:09.608Z,5.20
2017-12-30T06:28:37.098Z,5.30
2017-12-30T06:31:04.626Z,5.30
2017-12-30T06:33:32.415Z,5.30
2017-12-30T06:35:59.919Z,5.30
2017-12-30T06:38:28.414Z,5.30
2017-12-30T06:40:56.722Z,5.40
2017-12-30T06:43:24.391Z,5.40
2017-12-30T06:45:52.756Z,5.40
2017-12-30T06:48:21.426Z,5.40
2017-12-30T06:50:48.923Z,5.40
2017-12-30T06:53:17.212Z,5.40
2017-12-30T06:55:45.474Z,5.30
2017-12-30T06:58:12.995Z,5.40
2017-12-30T07:00:40.575Z,5.40
2017-12-30T07:03:08.087Z,5.40
2017-12-30T07:05:35.760Z,5.50
2017-12-30T07:08:03.564Z,5.50
2017-12-30T07:10:31.055Z,5.40
2017-12-30T07:12:58.767Z,5.40
2017-12-30T07:15:26.814Z,5.40
2017-12-30T07:17:54.319Z,5.40
2017-12-30T07:20:22.600Z,5.30
2017-12-30T07:22:50.143Z,5.30
2017-12-30T07:25:17.646Z,5.40
2017-12-30T07:27:45.153Z,5.40
2017-12-30T07:30:12.964Z,5.40
2017-12-30T07:32:41.503Z,5.40
2017-12-30T07:35:09.012Z,5.40
2017-12-30T07:37:36.723Z,5.50
2017-12-30T07:40:05.307Z,5.50
2017-12-30T07:42:33.739Z,5.50
2017-12-30T07:45:01.243Z,5.40
2017-12-30T07:47:28.738Z,5.40
2017-12-30T07:49:59.635Z,5.40
2017-12-30T07:52:27.131Z,5.50
2017-12-30T07:54:55.044Z,5.50
2017-12-30T07:57:22.652Z,5.40
2017-12-30T07:59:51.207Z,5.50
2017-12-30T08:02:18.968Z,5.50
2017-12-30T08:04:46.581Z,5.50
2017-12-30T08:07:14.847Z,5.60
2017-12-30T08:09:42.787Z,5.60
2017-12-30T08:12:11.074Z,5.60
2017-12-30T08:14:39.040Z,5.60
2017-12-30T08:17:06.787Z,6.00
2017-12-30T08:19:35.324Z,6.60
2017-12-30T08:22:03.587Z,7.10
2017-12-30T08:24:31.095Z,7.40
2017-12-30T08:26:58.587Z,7.80
2017-12-30T08:29:26.846Z,8.00
2017-12-30T08:31:54.583Z,7.20
2017-12-30T08:34:22.187Z,6.20
2017-12-30T08:36:50.725Z,5.50
2017-12-30T08:39:18.265Z,5.50
2017-12-30T08:41:45.723Z,5.60
2017-12-30T08:44:13.403Z,5.50
2017-12-30T08:46:41.812Z,5.30
2017-12-30T08:49:09.323Z,5.30
2017-12-30T08:51:37.007Z,5.40
2017-12-30T08:54:04.523Z,5.30
2017-12-30T08:56:32.452Z,5.30
2017-12-30T08:58:59.983Z,5.40
2017-12-30T09:01:27.879Z,5.50
2017-12-30T09:03:55.515Z,5.60
2017-12-30T09:06:23.007Z,5.70
2017-12-30T09:08:50.511Z,5.70
2017-12-30T09:11:18.012Z,5.80
2017-12-30T09:13:45.650Z,5.70
2017-12-30T09:16:13.138Z,5.70
2017-12-30T09:18:40.969Z,5.60
2017-12-30T09:21:08.464Z,5.70
2017-12-30T09:23:36.732Z,5.60
2017-12-30T09:26:04.459Z,5.70
2017-12-30T09:28:31.959Z,5.70
2017-12-30T09:30:59.714Z,5.70
2017-12-30T09:33:27.444Z,5.80
2017-12-30T09:35:55.207Z,5.80
2017-12-30T09:38:22.706Z,5.70
2017-12-30T09:40:51.042Z,5.80
2017-12-30T09:43:18.805Z,5.80
2017-12-30T09:45:46.875Z,5.90
2017-12-30T09:48:14.648Z,5.80
2017-12-30T09:50:42.142Z,5.70
2017-12-30T09:53:09.862Z,5.80
2017-12-30T09:55:37.623Z,5.80
2017-12-30T09:58:06.103Z,5.80
2017-12-30T10:00:33.763Z,5.90
2017-12-30T10:03:01.259Z,5.80
2017-12-30T10:05:28.771Z,5.80
2017-12-30T10:07:56.438Z,5.80
2017-12-30T10:10:24.203Z,5.80
2017-12-30T10:12:51.990Z,5.80
2017-12-30T10:15:19.739Z,5.70
2017-12-30T10:17:47.501Z,5.70
2017-12-30T10:20:15.000Z,5.70
2017-12-30T10:22:42.719Z,5.70
2017-12-30T10:25:10.869Z,5.70
2017-12-30T10:27:38.551Z,5.70
2017-12-30T10:30:06.047Z,5.70
2017-12-30T10:32:33.776Z,5.80
2017-12-30T10:35:01.544Z,5.70
2017-12-30T10:37:29.040Z,5.80
2017-12-30T10:39:57.871Z,5.80
2017-12-30T10:42:26.380Z,5.70
2017-12-30T10:44:54.719Z,5.70
2017-12-30T10:47:22.612Z,5.80
2017-12-30T10:49:51.881Z,5.70
2017-12-30T10:52:19.388Z,5.70
2017-12-30T10:54:46.884Z,5.50
2017-12-30T10:57:14.374Z,5.60
2017-12-30T10:59:41.939Z,5.60
2017-12-30T11:02:10.359Z,5.60
2017-12-30T11:04:37.854Z,5.40
2017-12-30T11:07:06.355Z,5.40
2017-12-30T11:09:35.345Z,5.40
2017-12-30T11:12:05.351Z,5.40
2017-12-30T11:14:33.245Z,5.30
2017-12-30T11:17:00.767Z,5.20
2017-12-30T11:19:28.654Z,5.30
2017-12-30T11:21:56.959Z,5.30
2017-12-30T11:24:24.506Z,5.10
2017-12-30T11:26:52.385Z,5.00
2017-12-30T11:29:20.031Z,4.90
2017-12-30T11:31:47.796Z,4.80
2017-12-30T11:34:15.804Z,4.90
2017-12-30T11:36:43.303Z,4.80
2017-12-30T11:39:11.344Z,4.80
2017-12-30T11:41:38.846Z,4.90
2017-12-30T11:44:06.613Z,4.90
2017-12-30T11:46:34.659Z,4.90
2017-12-30T11:49:02.167Z,4.90
2017-12-30T11:51:29.665Z,4.90
2017-12-30T11:53:57.626Z,4.70
2017-12-30T11:56:25.123Z,4.80
2017-12-30T11:58:52.735Z,4.70
2017-12-30T12:01:20.259Z,4.70
2017-12-30T12:03:47.782Z,4.70
2017-12-30T12:06:15.284Z,4.80
2017-12-30T12:08:43.312Z,4.80
2017-12-30T12:11:10.810Z,4.80
2017-12-30T12:13:38.327Z,4.80
2017-12-30T12:16:05.991Z,4.60
2017-12-30T12:18:33.499Z,4.60
2017-12-30T12:21:01.191Z,4.60
2017-12-30T12:23:28.679Z,4.60
2017-12-30T12:25:56.178Z,4.60
2017-12-30T12:28:23.790Z,4.60
2017-12-30T12:30:51.331Z,4.60
2017-12-30T12:33:18.835Z,4.60
2017-12-30T12:35:46.731Z,4.60
2017-12-30T12:38:14.290Z,4.60
2017-12-30T12:40:42.403Z,4.70
2017-12-30T12:43:10.167Z,4.70
2017-12-30T12:45:37.666Z,4.60
2017-12-30T12:48:05.194Z,4.50
2017-12-30T12:50:32.842Z,4.70
2017-12-30T12:53:00.987Z,4.60
2017-12-30T12:55:28.474Z,4.50
2017-12-30T12:57:56.650Z,4.60
2017-12-30T13:00:24.428Z,4.70
2017-12-30T13:02:52.588Z,4.70
2017-12-30T13:05:20.885Z,4.60
2017-12-30T13:07:48.544Z,4.70
2017-12-30T13:10:16.050Z,4.70
2017-12-30T13:12:43.953Z,4.60
2017-12-30T13:15:14.095Z,4.50
2017-12-30T13:17:41.630Z,4.60
2017-12-30T13:20:10.351Z,4.60
2017-12-30T13:22:38.041Z,4.50
2017-12-30T13:25:06.403Z,4.40
2017-12-30T13:27:33.901Z,4.40
2017-12-30T13:30:01.956Z,4.40
2017-12-30T13:32:29.446Z,4.40
2017-12-30T13:34:56.965Z,4.40
2017-12-30T13:37:24.460Z,4.50
2017-12-30T13:39:52.084Z,4.50
2017-12-30T13:42:20.356Z,4.50
2017-12-30T13:44:48.077Z,4.60
2017-12-30T13:47:16.015Z,4.60
2017-12-30T13:49:43.773Z,4.50
2017-12-30T13:52:11.666Z,4.50
2017-12-30T13:54:39.631Z,4.60
2017-12-30T13:57:09.103Z,4.70
2017-12-30T13:59:36.648Z,4.60
2017-12-30T14:02:04.160Z,4.60
2017-12-30T14:04:31.667Z,4.70
2017-12-30T14:07:00.300Z,4.70
2017-12-30T14:09:27.804Z,4.80
2017-12-30T14:11:55.299Z,4.70
2017-12-30T14:14:24.378Z,4.50
2017-12-30T14:16:52.771Z,4.40
2017-12-30T14:19:21.321Z,4.40
2017-12-30T14:21:48.888Z,4.40
2017-12-30T14:24:16.370Z,4.50
2017-12-30T14:26:44.643Z,4.50
2017-12-30T14:29:12.254Z,4.60
2017-12-30T14:31:39.762Z,4.70
2017-12-30T14:34:07.358Z,4.60
2017-12-30T14:36:35.891Z,4.60
2017-12-30T14:39:03.794Z,4.60
2017-12-30T14:41:32.996Z,4.70
2017-12-30T14:44:02.255Z,4.70
2017-12-30T14:46:29.775Z,4.60
2017-12-30T14:48:57.631Z,4.60
2017-12-30T14:51:25.851Z,4.60
2017-12-30T14:53:53.351Z,4.70
2017-12-30T14:56:21.082Z,4.60
2017-12-30T14:58:48.659Z,4.90
2017-12-30T15:01:16.524Z,5.80
2017-12-30T15:03:44.404Z,6.30
2017-12-30T15:06:12.394Z,6.80
2017-12-30T15:08:41.643Z,6.20
2017-12-30T15:11:10.089Z,5.80
2017-12-30T15:13:38.213Z,5.60
2017-12-30T15:16:05.938Z,5.50
2017-12-30T15:18:33.710Z,5.40
2017-12-30T15:21:01.418Z,5.40
2017-12-30T15:23:30.063Z,5.30
2017-12-30T15:25:57.559Z,5.30
2017-12-30T15:28:25.966Z,5.40
2017-12-30T15:30:53.462Z,5.50
2017-12-30T15:33:21.219Z,5.40
2017-12-30T15:35:48.712Z,5.40
2017-12-30T15:38:16.443Z,5.40
2017-12-30T15:40:44.200Z,5.40
2017-12-30T15:43:13.144Z,5.50
2017-12-30T15:45:40.947Z,5.40
2017-12-30T15:48:08.440Z,5.50
2017-12-30T15:50:36.334Z,5.40
2017-12-30T15:53:03.887Z,5.40
2017-12-30T15:55:31.826Z,5.40
2017-12-30T15:57:59.468Z,5.50
2017-12-30T16:00:27.530Z,5.50
2017-12-30T16:02:55.072Z,5.50
2017-12-30T16:05:23.826Z,5.50
2017-12-30T16:07:53.019Z,5.50
2017-12-30T16:10:20.715Z,5.40
2017-12-30T16:12:48.418Z,5.40
2017-12-30T16:15:15.935Z,5.40
2017-12-30T16:17:43.422Z,5.60
2017-12-30T16:20:10.924Z,5.70
2017-12-30T16:22:38.420Z,6.20
2017-12-30T16:25:06.091Z,8.20
2017-12-30T16:27:33.587Z,7.20
2017-12-30T16:30:02.912Z,6.70
2017-12-30T16:32:30.410Z,6.60
2017-12-30T16:34:58.993Z,6.50
2017-12-30T16:37:26.936Z,6.40
2017-12-30T16:39:54.515Z,6.60
2017-12-30T16:42:22.020Z,6.60
2017-12-30T16:44:49.692Z,6.70
2017-12-30T16:47:17.599Z,6.90
2017-12-30T16:49:45.478Z,7.00
2017-12-30T16:52:13.743Z,7.10
2017-12-30T16:54:41.408Z,7.10
2017-12-30T16:57:09.119Z,7.20
2017-12-30T16:59:36.625Z,7.30
2017-12-30T17:02:04.631Z,7.30
2017-12-30T17:04:32.764Z,7.30
2017-12-30T17:07:00.767Z,7.30
2017-12-30T17:09:28.292Z,7.40
2017-12-30T17:11:55.788Z,7.50
2017-12-30T17:14:24.474Z,7.60
2017-12-30T17:16:52.385Z,7.60
2017-12-30T17:19:19.968Z,7.70
2017-12-30T17:21:47.478Z,7.70
2017-12-30T17:24:15.191Z,7.70
2017-12-30T17:26:42.674Z,7.80
2017-12-30T17:29:10.209Z,9.40
2017-12-30T17:31:38.249Z,9.90
2017-12-30T17:34:05.769Z,10.10
2017-12-30T17:36:34.302Z,10.10
2017-12-30T17:39:02.279Z,8.50
2017-12-30T17:41:30.763Z,8.00
2017-12-30T17:43:58.824Z,7.90
2017-12-30T17:46:26.328Z,7.90
2017-12-30T17:48:54.632Z,7.90
2017-12-30T17:51:22.111Z,7.90
2017-12-30T17:53:50.378Z,7.80
2017-12-30T17:56:17.922Z,7.90
2017-12-30T17:58:45.427Z,7.90
2017-12-30T18:01:13.162Z,7.90
2017-12-30T18:03:41.532Z,7.90
2017-12-30T18:06:09.056Z,7.90
2017-12-30T18:08:36.547Z,7.90
2017-12-30T18:11:04.221Z,8.10
2017-12-30T18:13:32.615Z,8.00
2017-12-30T18:16:00.111Z,7.90
2017-12-30T18:18:28.132Z,7.90
2017-12-30T18:20:55.630Z,9.10
2017-12-30T18:23:23.140Z,9.50
2017-12-30T18:25:50.830Z,9.40
2017-12-30T18:28:18.323Z,8.70
2017-12-30T18:30:46.009Z,8.20
2017-12-30T18:33:13.503Z,8.10
2017-12-30T18:35:41.025Z,8.10
2017-12-30T18:38:08.715Z,8.10
2017-12-30T18:40:36.224Z,8.10
2017-12-30T18:43:04.231Z,8.10
2017-12-30T18:45:32.612Z,8.10
2017-12-30T18:48:00.330Z,8.10
2017-12-30T18:50:27.831Z,8.10
2017-12-30T18:52:55.788Z,8.10
2017-12-30T18:55:23.651Z,8.10
2017-12-30T18:57:52.060Z,8.10
2017-12-30T19:00:19.559Z,8.10
2017-12-30T19:02:48.419Z,8.60
2017-12-30T19:05:16.844Z,9.40
2017-12-30T19:07:44.935Z,9.90
2017-12-30T19:10:12.963Z,9.00
2017-12-30T19:12:40.463Z,8.40
2017-12-30T19:15:08.835Z,8.20
2017-12-30T19:17:36.439Z,8.20
2017-12-30T19:20:04.982Z,8.20
2017-12-30T19:22:32.747Z,8.20
2017-12-30T19:25:00.810Z,8.20
2017-12-30T19:27:28.315Z,8.10
2017-12-30T19:29:56.051Z,8.10
2017-12-30T19:32:23.803Z,8.10
2017-12-30T19:34:51.306Z,8.10
2017-12-30T19:37:18.982Z,8.10
2017-12-30T19:39:46.669Z,8.10
2017-12-30T19:42:14.181Z,8.10
2017-12-30T19:44:43.341Z,8.20
2017-12-30T19:47:10.995Z,8.10
2017-12-30T19:49:38.508Z,8.10
2017-12-30T19:52:06.239Z,8.00
2017-12-30T19:54:34.607Z,8.00
2017-12-30T19:57:02.363Z,8.00
2017-12-30T19:59:29.854Z,8.00
2017-12-30T20:01:57.534Z,8.00
2017-12-30T20:04:25.440Z,8.00
2017-12-30T20:06:52.947Z,7.90
2017-12-30T20:09:21.279Z,8.00
2017-12-30T20:11:48.767Z,8.00
2017-12-30T20:14:16.486Z,7.90
2017-12-30T20:16:44.816Z,7.90
2017-12-30T20:19:13.154Z,7.80
2017-12-30T20:21:40.917Z,7.90
2017-12-30T20:24:08.814Z,7.80
2017-12-30T20:26:36.306Z,7.80
2017-12-30T20:29:04.579Z,7.80
2017-12-30T20:31:33.120Z,7.80
2017-12-30T20:34:00.655Z,7.80
2017-12-30T20:36:28.919Z,7.70
2017-12-30T20:38:56.469Z,7.80
2017-12-30T20:41:24.375Z,7.80
2017-12-30T20:43:52.646Z,7.70
2017-12-30T20:46:20.705Z,7.70
2017-12-30T20:48:48.775Z,7.70
2017-12-30T20:51:16.535Z,7.60
2017-12-30T20:53:44.914Z,7.60
2017-12-30T20:56:12.398Z,7.60
2017-12-30T20:58:40.158Z,7.60
2017-12-30T21:01:08.038Z,7.60
2017-12-30T21:03:35.675Z,7.50
2017-12-30T21:06:04.986Z,7.60
2017-12-30T21:08:32.475Z,7.50
2017-12-30T21:11:00.999Z,7.50
2017-12-30T21:13:28.857Z,7.50
2017-12-30T21:15:57.131Z,7.50
2017-12-30T21:18:25.483Z,7.60
2017-12-30T21:20:53.707Z,7.60
2017-12-30T21:23:21.771Z,7.60
2017-12-30T21:25:49.410Z,7.60
2017-12-30T21:28:17.647Z,7.60
2017-12-30T21:30:45.403Z,7.60
2017-12-30T21:33:14.027Z,7.60
2017-12-30T21:35:42.320Z,7.60
2017-12-30T21:38:09.796Z,7.60
2017-12-30T21:40:37.360Z,7.60
2017-12-30T21:43:05.683Z,7.60
2017-12-30T21:45:33.184Z,7.60
2017-12-30T21:48:00.675Z,7.60
2017-12-30T21:50:28.187Z,7.60
2017-12-30T21:52:56.161Z,7.60
2017-12-30T21:55:23.671Z,7.60
2017-12-30T21:57:52.724Z,7.60
2017-12-30T22:00:20.219Z,7.60
2017-12-30T22:02:48.485Z,7.60
2017-12-30T22:05:15.999Z,7.70
2017-12-30T22:07:44.276Z,7.70
2017-12-30T22:10:12.234Z,7.70
2017-12-30T22:12:40.763Z,7.70
2017-12-30T22:15:08.794Z,7.70
2017-12-30T22:17:37.175Z,7.70
2017-12-30T22:20:04.706Z,7.70
2017-12-30T22:22:35.354Z,7.70
2017-12-30T22:25:03.739Z,7.70
2017-12-30T22:27:31.260Z,7.70
2017-12-30T22:29:58.763Z,7.70
2017-12-30T22:32:26.826Z,7.70
2017-12-30T22:34:54.688Z,7.70
2017-12-30T22:37:24.591Z,7.70
2017-12-30T22:39:52.575Z,7.80
2017-12-30T22:42:20.737Z,7.80
2017-12-30T22:44:49.455Z,7.80
2017-12-30T22:47:16.938Z,7.90
2017-12-30T22:49:45.451Z,7.90
2017-12-30T22:52:13.543Z,7.90
2017-12-30T22:54:41.971Z,7.90
2017-12-30T22:57:09.482Z,8.00
2017-12-30T22:59:37.120Z,8.00
2017-12-30T23:02:04.906Z,8.00
2017-12-30T23:04:33.214Z,8.00
2017-12-30T23:07:01.356Z,8.00
2017-12-30T23:09:29.388Z,8.00
2017-12-30T23:11:56.895Z,8.10
2017-12-30T23:14:25.403Z,8.10
2017-12-30T23:16:53.746Z,8.10
2017-12-30T23:19:21.363Z,8.20
2017-12-30T23:21:48.866Z,8.20
2017-12-30T23:24:17.188Z,8.10
2017-12-30T23:26:44.715Z,8.10
2017-12-30T23:29:12.207Z,8.20
2017-12-30T23:31:39.815Z,8.10
2017-12-30T23:34:07.703Z,8.10
2017-12-30T23:36:35.604Z,8.10
2017-12-30T23:39:04.546Z,8.20
2017-12-30T23:41:32.195Z,8.20
2017-12-30T23:43:59.694Z,8.10
2017-12-30T23:46:27.582Z,8.20
2017-12-30T23:48:55.843Z,8.20
2017-12-30T23:51:23.883Z,8.20
2017-12-30T23:53:51.388Z,8.20
2017-12-30T23:56:19.684Z,8.20
2017-12-30T23:58:47.471Z,8.20
